Time;durP1;ratioP1;P1;durP2;ratioP2;P2;SDS_P1;SDS_P2;PMS_P1;PMS_P2;Temp;Humidity;BMP_temperature;BMP_pressure;BME280_temperature;BME280_humidity;BME280_pressure;Samples;Min_cycle;Max_cycle;Signal;HPM_P1;HPM_P2
2021/05/19 00:01:21;;;;;;;2.73;2.53;;;8.40;99.90;;;;;;5058967;28;20185;-43
2021/05/19 00:03:47;;;;;;;3.27;2.90;;;8.50;99.90;;;;;;5059341;28;20594;-44
2021/05/19 00:06:13;;;;;;;2.80;2.60;;;8.50;99.90;;;;;;5058754;28;20188;-43
2021/05/19 00:08:39;;;;;;;2.77;2.57;;;8.40;99.90;;;;;;5057822;28;20554;-43
2021/05/19 00:11:05;;;;;;;2.90;2.60;;;8.40;99.90;;;;;;5059034;28;20725;-43
2021/05/19 00:13:34;;;;;;;3.03;2.73;;;8.40;99.90;;;;;;5058919;28;20472;-43
2021/05/19 00:16:00;;;;;;;2.77;2.57;;;8.30;99.90;;;;;;5057882;28;20408;-43
2021/05/19 00:18:26;;;;;;;3.20;2.30;;;8.30;99.90;;;;;;5058290;28;20447;-43
2021/05/19 00:20:52;;;;;;;2.50;2.20;;;8.30;99.90;;;;;;5057849;28;20741;-43
2021/05/19 00:23:18;;;;;;;2.57;2.37;;;8.30;99.90;;;;;;5058208;28;20507;-43
2021/05/19 00:25:43;;;;;;;3.07;2.77;;;8.30;99.90;;;;;;5058302;28;20178;-43
2021/05/19 00:28:11;;;;;;;2.50;2.30;;;8.30;99.90;;;;;;5057177;28;20185;-42
2021/05/19 00:30:38;;;;;;;2.73;2.27;;;8.30;99.90;;;;;;5041016;28;20266;-43
2021/05/19 00:33:05;;;;;;;3.20;2.90;;;8.40;99.90;;;;;;5058099;28;20522;-43
2021/05/19 00:35:30;;;;;;;3.33;3.03;;;8.40;99.90;;;;;;5058390;28;20423;-43
2021/05/19 00:37:56;;;;;;;3.50;2.43;;;8.30;99.90;;;;;;5058334;28;20420;-43
2021/05/19 00:40:22;;;;;;;2.80;2.60;;;8.30;99.90;;;;;;5057883;28;20544;-43
2021/05/19 00:42:48;;;;;;;5.57;2.90;;;8.40;99.90;;;;;;5058187;28;20193;-43
2021/05/19 00:45:14;;;;;;;3.60;2.80;;;8.40;99.90;;;;;;5058049;28;20182;-43
2021/05/19 00:47:41;;;;;;;2.83;2.50;;;8.30;99.90;;;;;;5056851;28;20508;-44
2021/05/19 00:50:18;;;;;;;2.83;2.63;;;8.20;99.90;;;;;;5058520;28;20452;-43
2021/05/19 00:52:44;;;;;;;3.30;2.90;;;8.10;99.90;;;;;;5057997;28;20456;-43
2021/05/19 00:55:10;;;;;;;3.00;2.70;;;8.10;99.90;;;;;;5058158;28;20418;-41
2021/05/19 00:57:37;;;;;;;3.20;2.90;;;8.10;99.90;;;;;;5058197;28;20257;-42
2021/05/19 01:00:05;;;;;;;3.30;2.70;;;8.10;99.90;;;;;;5056857;28;20416;-40
2021/05/19 01:02:31;;;;;;;4.77;3.40;;;8.10;99.90;;;;;;5057919;28;20490;-43
2021/05/19 01:04:57;;;;;;;3.67;3.30;;;8.10;99.90;;;;;;5058324;28;20424;-42
2021/05/19 01:07:27;;;;;;;7.27;4.13;;;8.20;99.90;;;;;;5058582;28;20181;-43
2021/05/19 01:09:53;;;;;;;3.50;3.20;;;8.20;99.90;;;;;;5057731;28;20416;-43
2021/05/19 01:12:22;;;;;;;4.43;3.00;;;8.20;99.90;;;;;;5056331;28;20494;-43
2021/05/19 01:14:49;;;;;;;4.30;2.93;;;8.10;99.90;;;;;;5058322;28;20493;-42
2021/05/19 01:17:16;;;;;;;3.50;3.00;;;8.10;99.90;;;;;;5057641;28;20416;-43
2021/05/19 01:19:52;;;;;;;3.90;3.50;;;8.10;99.90;;;;;;5057659;28;20844;-42
2021/05/19 01:22:22;;;;;;;3.13;2.90;;;8.00;99.90;;;;;;5057418;28;20413;-43
2021/05/19 01:24:49;;;;;;;4.53;3.40;;;8.10;99.90;;;;;;5057595;28;20502;-43
2021/05/19 01:27:14;;;;;;;4.13;3.73;;;8.00;99.90;;;;;;5057534;28;20420;-43
2021/05/19 01:29:40;;;;;;;3.83;3.47;;;8.00;99.90;;;;;;5057462;28;20708;-42
2021/05/19 01:32:06;;;;;;;3.87;3.47;;;8.00;99.90;;;;;;5057257;28;20189;-42
2021/05/19 01:34:32;;;;;;;4.30;3.47;;;8.00;99.90;;;;;;5057845;28;20218;-43
2021/05/19 01:36:58;;;;;;;3.30;3.00;;;8.00;99.90;;;;;;5057075;28;20452;-43
2021/05/19 01:39:25;;;;;;;3.20;2.93;;;8.00;99.90;;;;;;5057321;28;20463;-43
2021/05/19 01:41:50;;;;;;;3.13;2.93;;;8.00;99.90;;;;;;5056096;28;20483;-42
2021/05/19 01:44:17;;;;;;;3.70;3.40;;;8.10;99.90;;;;;;5057061;28;20431;-43
2021/05/19 01:46:44;;;;;;;4.60;3.17;;;8.10;99.90;;;;;;5057132;28;20246;-43
2021/05/19 01:49:11;;;;;;;3.57;3.27;;;8.10;99.90;;;;;;5056927;28;20450;-42
2021/05/19 01:51:38;;;;;;;3.77;3.23;;;8.10;99.90;;;;;;5057087;28;20688;-43
2021/05/19 01:54:37;;;;;;;3.30;3.00;;;8.10;99.90;;;;;;5056926;28;20625;-43
2021/05/19 01:57:05;;;;;;;3.57;2.87;;;8.20;99.90;;;;;;5056966;28;20447;-43
2021/05/19 01:59:30;;;;;;;4.07;2.73;;;8.20;99.90;;;;;;5056889;28;20735;-42
2021/05/19 02:01:56;;;;;;;3.80;3.03;;;8.20;99.90;;;;;;5056768;28;20440;-43
2021/05/19 02:04:22;;;;;;;3.00;2.80;;;8.20;99.90;;;;;;5056485;28;20467;-43
2021/05/19 02:06:55;;;;;;;4.30;3.17;;;8.10;99.90;;;;;;5055640;28;20217;-43
2021/05/19 02:09:21;;;;;;;5.13;2.87;;;8.20;99.90;;;;;;5055775;28;20756;-42
2021/05/19 02:11:46;;;;;;;3.17;2.90;;;8.20;99.90;;;;;;5056546;28;20448;-43
2021/05/19 02:14:13;;;;;;;3.87;3.00;;;8.20;99.90;;;;;;5056178;28;20932;-43
2021/05/19 02:16:39;;;;;;;3.07;2.77;;;8.20;99.90;;;;;;5056398;28;20173;-43
2021/05/19 02:19:07;;;;;;;3.00;2.70;;;8.30;99.90;;;;;;5056230;28;20901;-43
2021/05/19 02:21:32;;;;;;;2.80;2.53;;;8.30;99.90;;;;;;5056567;28;20247;-43
2021/05/19 02:23:59;;;;;;;5.40;3.10;;;8.30;99.90;;;;;;5056010;28;20570;-43
2021/05/19 02:26:25;;;;;;;3.40;3.10;;;8.30;99.90;;;;;;5055588;28;20478;-42
2021/05/19 02:28:51;;;;;;;3.17;2.87;;;8.30;99.90;;;;;;5055884;28;21004;-43
2021/05/19 02:31:17;;;;;;;2.70;2.50;;;8.30;99.90;;;;;;5056408;28;20439;-43
2021/05/19 02:33:42;;;;;;;2.70;2.50;;;8.30;99.90;;;;;;5056085;28;20225;-43
2021/05/19 02:36:08;;;;;;;4.13;2.80;;;8.30;99.90;;;;;;5055926;28;20555;-43
2021/05/19 02:38:35;;;;;;;2.90;2.70;;;8.20;99.90;;;;;;5056115;28;20174;-43
2021/05/19 02:41:02;;;;;;;2.63;2.23;;;8.10;99.90;;;;;;5056270;28;20420;-43
2021/05/19 02:43:27;;;;;;;3.70;3.40;;;8.00;99.90;;;;;;5055870;28;20452;-43
2021/05/19 02:45:53;;;;;;;4.73;2.80;;;7.90;99.90;;;;;;5056328;28;20448;-43
2021/05/19 02:48:18;;;;;;;3.50;3.20;;;7.90;99.90;;;;;;5055978;28;20186;-43
2021/05/19 02:50:44;;;;;;;4.13;2.90;;;7.90;99.90;;;;;;5055887;28;20515;-43
2021/05/19 02:53:10;;;;;;;4.27;3.43;;;7.90;99.90;;;;;;5055822;28;20239;-42
2021/05/19 02:55:35;;;;;;;3.80;3.10;;;8.00;99.90;;;;;;5056018;28;20178;-43
2021/05/19 02:58:01;;;;;;;3.17;2.70;;;7.90;99.90;;;;;;5055832;28;20182;-42
2021/05/19 03:00:27;;;;;;;4.00;3.30;;;8.00;99.90;;;;;;5055914;28;20270;-43
2021/05/19 03:02:53;;;;;;;3.80;3.50;;;7.90;99.90;;;;;;5055940;28;20216;-43
2021/05/19 03:05:18;;;;;;;3.80;2.90;;;8.00;99.90;;;;;;5055709;28;20261;-42
2021/05/19 03:07:45;;;;;;;4.30;3.03;;;8.00;99.90;;;;;;5055705;28;20261;-43
2021/05/19 03:10:12;;;;;;;4.00;3.57;;;8.00;99.90;;;;;;5055114;28;20480;-43
2021/05/19 03:12:37;;;;;;;3.17;2.90;;;8.10;99.90;;;;;;5055321;28;20509;-43
2021/05/19 03:15:05;;;;;;;3.33;3.03;;;8.10;99.90;;;;;;5055554;28;20413;-41
2021/05/19 03:17:31;;;;;;;3.40;3.20;;;8.10;99.90;;;;;;5054412;28;20181;-43
2021/05/19 03:19:56;;;;;;;3.50;3.20;;;8.20;99.90;;;;;;5054870;28;20420;-43
2021/05/19 03:22:24;;;;;;;3.53;3.23;;;8.20;99.90;;;;;;5055761;28;20504;-43
2021/05/19 03:24:49;;;;;;;4.73;4.33;;;8.10;99.90;;;;;;5055561;28;20204;-43
2021/05/19 03:27:15;;;;;;;5.00;4.00;;;8.20;99.90;;;;;;5055735;28;20416;-42
2021/05/19 03:29:41;;;;;;;3.33;3.03;;;8.20;99.90;;;;;;5055341;28;20174;-43
2021/05/19 03:32:07;;;;;;;3.23;2.97;;;8.10;99.90;;;;;;5055377;28;20840;-43
2021/05/19 03:34:33;;;;;;;3.97;3.60;;;8.20;99.90;;;;;;5053940;28;20201;-43
2021/05/19 03:36:59;;;;;;;4.00;3.60;;;8.10;99.90;;;;;;5053539;28;20458;-42
2021/05/19 03:39:24;;;;;;;4.77;4.37;;;8.20;99.90;;;;;;5053863;28;20788;-43
2021/05/19 03:41:50;;;;;;;3.80;3.50;;;8.10;99.90;;;;;;5054296;28;20480;-43
2021/05/19 03:44:16;;;;;;;4.07;3.50;;;8.10;99.90;;;;;;5054340;28;20260;-43
2021/05/19 03:46:47;;;;;;;4.20;3.90;;;8.10;99.90;;;;;;5053242;28;20197;-43
2021/05/19 03:49:12;;;;;;;3.93;3.63;;;8.10;99.90;;;;;;5054455;28;20420;-43
2021/05/19 03:51:38;;;;;;;4.20;3.83;;;8.10;99.90;;;;;;5054901;28;20746;-43
2021/05/19 03:54:04;;;;;;;4.13;3.77;;;8.10;99.90;;;;;;5054838;28;20487;-43
2021/05/19 03:56:31;;;;;;;4.67;3.77;;;8.10;99.90;;;;;;5053954;28;20189;-43
2021/05/19 03:58:57;;;;;;;4.73;4.00;;;8.00;99.90;;;;;;5055001;28;20456;-42
2021/05/19 04:01:23;;;;;;;4.30;4.00;;;8.10;99.90;;;;;;5055120;28;20435;-42
2021/05/19 04:03:50;;;;;;;4.53;4.13;;;8.10;99.90;;;;;;5054365;28;20901;-42
2021/05/19 04:06:20;;;;;;;6.20;4.00;;;8.10;99.90;;;;;;5055248;28;20420;-43
2021/05/19 04:08:46;;;;;;;5.90;4.53;;;8.20;99.90;;;;;;5054740;28;20428;-42
2021/05/19 04:11:12;;;;;;;5.23;4.60;;;8.20;99.90;;;;;;5054878;28;20416;-43
2021/05/19 04:13:37;;;;;;;5.43;4.17;;;8.20;99.90;;;;;;5054545;28;20638;-43
2021/05/19 04:16:04;;;;;;;4.23;3.87;;;8.20;99.90;;;;;;5054275;28;20174;-43
2021/05/19 04:18:30;;;;;;;4.43;4.13;;;8.20;99.90;;;;;;5055000;28;20528;-43
2021/05/19 04:20:56;;;;;;;4.60;4.20;;;8.30;99.90;;;;;;5055360;28;20435;-40
2021/05/19 04:23:23;;;;;;;4.70;4.30;;;8.30;99.90;;;;;;5058183;28;20234;-43
2021/05/19 04:25:48;;;;;;;5.47;4.87;;;8.30;99.90;;;;;;5058387;28;20424;-43
2021/05/19 04:28:14;;;;;;;4.80;4.40;;;8.20;99.90;;;;;;5058063;28;20435;-43
2021/05/19 04:30:40;;;;;;;4.23;3.93;;;8.10;99.90;;;;;;5056409;28;20281;-43
2021/05/19 04:33:06;;;;;;;4.90;4.50;;;8.30;99.90;;;;;;5057776;28;20220;-42
2021/05/19 04:35:32;;;;;;;5.93;5.20;;;8.30;99.90;;;;;;5056383;28;20568;-42
2021/05/19 04:37:58;;;;;;;4.80;4.40;;;8.20;99.90;;;;;;5057554;28;20436;-42
2021/05/19 04:40:24;;;;;;;5.57;5.07;;;8.20;99.90;;;;;;5056812;28;20686;-42
2021/05/19 04:42:50;;;;;;;5.80;5.30;;;8.20;99.90;;;;;;5056825;28;20809;-43
2021/05/19 04:45:16;;;;;;;5.20;4.73;;;8.30;99.90;;;;;;5038061;28;20424;-42
2021/05/19 04:47:42;;;;;;;6.23;5.73;;;8.30;99.90;;;;;;5055466;28;20656;-42
2021/05/19 04:50:09;;;;;;;5.80;4.83;;;8.40;99.90;;;;;;5057085;28;20190;-41
2021/05/19 04:52:35;;;;;;;5.97;5.53;;;8.40;99.90;;;;;;5057270;28;20174;-43
2021/05/19 04:55:04;;;;;;;5.70;5.20;;;8.50;99.90;;;;;;5057118;28;20489;-43
2021/05/19 04:57:30;;;;;;;6.17;5.60;;;8.60;99.90;;;;;;5056426;28;20227;-43
2021/05/19 04:59:56;;;;;;;5.47;4.97;;;8.60;99.90;;;;;;5057657;28;20818;-42
2021/05/19 05:02:21;;;;;;;5.37;4.90;;;8.60;99.90;;;;;;5055853;28;20170;-43
2021/05/19 05:04:47;;;;;;;4.97;4.57;;;8.60;99.90;;;;;;5055396;28;20182;-43
2021/05/19 05:07:13;;;;;;;6.50;5.50;;;8.60;99.90;;;;;;5053632;28;20178;-42
2021/05/19 05:09:38;;;;;;;5.97;5.47;;;8.70;99.90;;;;;;5054170;28;20442;-43
2021/05/19 05:12:04;;;;;;;4.93;4.53;;;8.70;99.90;;;;;;5054194;28;20269;-43
2021/05/19 05:14:30;;;;;;;5.57;5.07;;;8.90;99.90;;;;;;5053293;28;20217;-41
2021/05/19 05:16:55;;;;;;;5.10;4.70;;;9.00;99.90;;;;;;5053725;28;20432;-43
2021/05/19 05:19:21;;;;;;;5.27;4.77;;;9.00;99.90;;;;;;5051955;28;20480;-43
2021/05/19 05:21:47;;;;;;;4.73;4.33;;;9.10;99.90;;;;;;5053608;28;20221;-43
2021/05/19 05:24:12;;;;;;;6.13;5.60;;;9.10;99.90;;;;;;5052355;28;20245;-43
2021/05/19 05:26:38;;;;;;;5.27;4.70;;;9.10;99.90;;;;;;5053884;28;20178;-43
2021/05/19 05:29:04;;;;;;;5.40;4.90;;;9.10;99.90;;;;;;5053992;28;20184;-43
2021/05/19 05:31:30;;;;;;;5.17;4.73;;;9.20;99.90;;;;;;5054282;28;20192;-43
2021/05/19 05:33:55;;;;;;;5.67;5.13;;;9.30;99.90;;;;;;5055380;28;20464;-43
2021/05/19 05:36:21;;;;;;;6.00;5.50;;;9.40;99.90;;;;;;5056175;28;20188;-43
2021/05/19 05:38:46;;;;;;;6.10;5.47;;;9.30;99.90;;;;;;5056585;28;20236;-43
2021/05/19 05:41:12;;;;;;;6.60;6.10;;;9.40;99.90;;;;;;5056137;28;20346;-43
2021/05/19 05:43:38;;;;;;;7.10;6.60;;;9.50;99.90;;;;;;5055180;28;20177;-43
2021/05/19 05:46:03;;;;;;;6.23;5.70;;;9.40;99.90;;;;;;5055364;28;20174;-42
2021/05/19 05:48:29;;;;;;;5.53;5.13;;;9.40;99.90;;;;;;5054334;28;20456;-43
2021/05/19 05:50:55;;;;;;;6.33;4.60;;;9.60;99.90;;;;;;5052228;28;20197;-43
2021/05/19 05:53:21;;;;;;;6.17;5.50;;;9.70;99.90;;;;;;5053263;28;20591;-43
2021/05/19 05:55:47;;;;;;;6.30;5.70;;;9.60;99.90;;;;;;5054514;28;20489;-43
2021/05/19 05:58:13;;;;;;;5.30;4.90;;;9.70;99.90;;;;;;5054111;28;20771;-43
2021/05/19 06:00:39;;;;;;;5.40;4.90;;;9.60;99.90;;;;;;5054315;28;20180;-42
2021/05/19 06:03:07;;;;;;;5.67;5.17;;;9.90;99.90;;;;;;5054315;28;20424;-43
2021/05/19 06:05:33;;;;;;;6.17;5.67;;;10.10;99.90;;;;;;5034459;28;20191;-43
2021/05/19 06:08:02;;;;;;;5.77;5.17;;;10.10;99.90;;;;;;5033225;28;20543;-41
2021/05/19 06:10:27;;;;;;;4.60;4.20;;;10.20;99.90;;;;;;5034211;28;20559;-42
2021/05/19 06:12:53;;;;;;;5.30;4.80;;;10.60;99.90;;;;;;5032780;28;20464;-42
2021/05/19 06:15:19;;;;;;;5.10;4.60;;;11.00;99.10;;;;;;5033874;28;20185;-43
2021/05/19 06:17:44;;;;;;;4.87;4.27;;;10.50;99.00;;;;;;5033729;28;20171;-42
2021/05/19 06:20:11;;;;;;;4.30;4.00;;;10.90;99.00;;;;;;5032858;28;20185;-42
2021/05/19 06:22:36;;;;;;;4.90;4.50;;;11.00;98.40;;;;;;5031976;28;20170;-42
2021/05/19 06:25:02;;;;;;;5.53;5.10;;;11.30;98.10;;;;;;5033092;28;20486;-42
2021/05/19 06:27:29;;;;;;;5.43;4.93;;;11.70;98.10;;;;;;5034453;28;20305;-39
2021/05/19 06:29:54;;;;;;;9.50;4.57;;;12.20;97.90;;;;;;5031014;28;20425;-42
2021/05/19 06:32:20;;;;;;;6.07;4.07;;;12.60;97.00;;;;;;5033200;28;20206;-41
2021/05/19 06:34:46;;;;;;;5.60;4.20;;;13.00;95.90;;;;;;5035131;28;20198;-42
2021/05/19 06:37:11;;;;;;;6.60;3.83;;;13.20;95.50;;;;;;5035382;28;20575;-42
2021/05/19 06:39:37;;;;;;;3.97;3.67;;;12.60;95.50;;;;;;5034326;28;20194;-42
2021/05/19 06:42:03;;;;;;;4.60;4.20;;;12.20;95.10;;;;;;5067369;28;20182;-42
2021/05/19 06:44:29;;;;;;;4.13;3.83;;;11.80;95.90;;;;;;5033909;28;20185;-41
2021/05/19 06:46:55;;;;;;;3.77;3.43;;;11.60;96.30;;;;;;5034292;28;20425;-40
2021/05/19 06:49:21;;;;;;;3.80;3.40;;;11.60;97.00;;;;;;5033823;28;20544;-42
2021/05/19 06:51:47;;;;;;;3.87;3.40;;;11.40;96.70;;;;;;5035428;28;20424;-42
2021/05/19 06:54:13;;;;;;;7.03;4.30;;;11.30;97.30;;;;;;5034606;28;20222;-42
2021/05/19 06:56:46;;;;;;;4.03;3.33;;;11.40;96.90;;;;;;5035050;28;20905;-42
2021/05/19 06:59:17;;;;;;;3.50;3.20;;;12.00;97.10;;;;;;5035605;28;20421;-41
2021/05/19 07:01:43;;;;;;;3.77;3.47;;;12.50;94.90;;;;;;5034607;28;20456;-43
2021/05/19 07:04:09;;;;;;;3.53;3.23;;;13.10;94.90;;;;;;5033587;28;20460;-43
2021/05/19 07:06:35;;;;;;;3.77;2.87;;;13.60;93.60;;;;;;5066353;28;20520;-42
2021/05/19 07:09:00;;;;;;;4.20;3.80;;;13.70;93.00;;;;;;5034317;28;20433;-43
2021/05/19 07:11:26;;;;;;;3.90;3.50;;;12.90;93.70;;;;;;5034564;28;20742;-43
2021/05/19 07:13:54;;;;;;;3.83;3.37;;;12.50;94.20;;;;;;5034860;28;20283;-43
2021/05/19 07:16:23;;;;;;;4.47;3.00;;;12.60;94.90;;;;;;5033888;28;20226;-41
2021/05/19 07:18:49;;;;;;;3.40;3.10;;;12.70;94.20;;;;;;5034830;28;20511;-41
2021/05/19 07:21:15;;;;;;;3.20;2.90;;;12.60;93.50;;;;;;5033149;28;20421;-43
2021/05/19 07:23:40;;;;;;;3.23;2.93;;;12.70;93.40;;;;;;5034961;28;20479;-41
2021/05/19 07:26:06;;;;;;;3.60;3.00;;;12.90;93.60;;;;;;5034168;28;20194;-44
2021/05/19 07:28:32;;;;;;;3.50;3.20;;;13.10;93.50;;;;;;5048617;28;20434;-43
2021/05/19 07:30:58;;;;;;;4.10;2.80;;;13.10;92.90;;;;;;5032882;28;20186;-42
2021/05/19 07:33:23;;;;;;;4.97;3.10;;;13.30;93.20;;;;;;5032552;28;20768;-41
2021/05/19 07:35:49;;;;;;;3.50;3.20;;;13.50;92.40;;;;;;5033218;28;20197;-43
2021/05/19 07:38:15;;;;;;;5.00;3.37;;;13.50;91.60;;;;;;5030743;28;20432;-42
2021/05/19 07:40:41;;;;;;;7.03;3.23;;;13.50;91.90;;;;;;5033664;28;20187;-42
2021/05/19 07:43:07;;;;;;;3.70;3.40;;;13.40;92.20;;;;;;5032817;28;20580;-42
2021/05/19 07:45:33;;;;;;;4.83;3.83;;;12.30;92.70;;;;;;5034013;28;20885;-42
2021/05/19 07:47:59;;;;;;;4.43;4.00;;;12.40;94.00;;;;;;5033739;28;20692;-42
2021/05/19 07:50:25;;;;;;;6.73;3.50;;;12.20;93.50;;;;;;5033672;28;20420;-43
2021/05/19 07:52:51;;;;;;;7.33;3.73;;;11.90;93.60;;;;;;5035433;28;20256;-42
2021/05/19 07:55:27;;;;;;;3.63;3.20;;;12.20;94.10;;;;;;5035988;28;20421;-42
2021/05/19 07:58:04;;;;;;;3.67;3.37;;;12.80;94.70;;;;;;5037654;28;20494;-43
2021/05/19 08:02:58;;;;;;;3.63;2.83;;;13.00;92.40;;;;;;5036731;28;20724;-43
2021/05/19 08:05:24;;;;;;;5.10;3.70;;;13.80;93.00;;;;;;5037222;28;20432;-41
2021/05/19 08:07:50;;;;;;;3.60;3.13;;;14.30;91.10;;;;;;5036304;28;20190;-42
2021/05/19 08:10:16;;;;;;;3.20;2.90;;;14.50;90.90;;;;;;5038164;28;20210;-42
2021/05/19 08:12:41;;;;;;;3.87;3.47;;;14.20;90.70;;;;;;5037726;28;20568;-42
2021/05/19 08:15:08;;;;;;;4.73;3.27;;;13.70;90.90;;;;;;5038001;28;20659;-41
2021/05/19 08:17:33;;;;;;;3.13;2.77;;;13.70;90.80;;;;;;5069244;28;20419;-42
2021/05/19 08:19:59;;;;;;;3.50;3.20;;;13.80;91.20;;;;;;5037581;28;20481;-43
2021/05/19 08:22:25;;;;;;;4.50;3.83;;;13.80;90.40;;;;;;5037636;28;20211;-42
2021/05/19 08:24:50;;;;;;;4.30;3.40;;;13.20;91.30;;;;;;5037594;28;20183;-43
2021/05/19 08:27:16;;;;;;;4.23;3.30;;;12.70;91.80;;;;;;5037141;28;20201;-42
2021/05/19 08:29:43;;;;;;;4.90;3.30;;;12.50;92.80;;;;;;5036456;28;20541;-41
2021/05/19 08:32:09;;;;;;;3.47;3.00;;;12.30;93.80;;;;;;5037512;28;20256;-42
2021/05/19 08:34:35;;;;;;;5.33;3.40;;;12.70;93.10;;;;;;5036940;28;20587;-43
2021/05/19 08:37:00;;;;;;;2.83;2.60;;;12.40;92.60;;;;;;5034845;28;20539;-43
2021/05/19 08:39:26;;;;;;;5.80;3.13;;;12.30;92.60;;;;;;5036132;28;20626;-43
2021/05/19 08:41:52;;;;;;;4.30;3.53;;;12.20;92.70;;;;;;5036976;28;20510;-42
2021/05/19 08:44:19;;;;;;;3.80;3.00;;;12.20;93.00;;;;;;5036018;28;20265;-42
2021/05/19 08:46:48;;;;;;;3.40;3.00;;;12.50;92.60;;;;;;5035388;28;20518;-41
2021/05/19 08:49:14;;;;;;;3.50;3.20;;;12.80;92.10;;;;;;5036626;28;20543;-41
2021/05/19 08:51:41;;;;;;;4.30;2.87;;;12.40;91.80;;;;;;5036934;28;20505;-41
2021/05/19 08:54:08;;;;;;;4.40;2.90;;;12.80;92.00;;;;;;5067657;28;20568;-43
2021/05/19 08:56:42;;;;;;;3.53;2.80;;;13.80;91.00;;;;;;5036886;28;20827;-42
2021/05/19 08:59:08;;;;;;;5.43;2.87;;;13.90;90.30;;;;;;5052390;28;20897;-41
2021/05/19 09:01:49;;;;;;;4.93;2.90;;;14.50;88.50;;;;;;5037583;28;20433;-43
2021/05/19 09:04:23;;;;;;;4.47;2.20;;;15.00;85.10;;;;;;5037848;28;20174;-43
2021/05/19 09:06:59;;;;;;;2.50;2.30;;;14.80;86.00;;;;;;5036364;28;20425;-42
2021/05/19 09:09:35;;;;;;;6.03;1.93;;;14.70;84.50;;;;;;5036603;28;20498;-43
2021/05/19 09:12:07;;;;;;;4.60;2.07;;;15.30;83.80;;;;;;5037362;28;20826;-43
2021/05/19 09:14:42;;;;;;;2.77;1.73;;;15.50;79.00;;;;;;5035681;28;20599;-43
2021/05/19 09:17:24;;;;;;;1.80;1.60;;;16.20;77.60;;;;;;5034586;28;20482;-43
2021/05/19 09:20:13;;;;;;;2.63;1.73;;;17.30;73.90;;;;;;5065595;28;20464;-43
2021/05/19 09:22:41;;;;;;;2.77;1.57;;;17.70;71.50;;;;;;5034145;28;20424;-43
2021/05/19 09:25:22;;;;;;;2.10;1.33;;;18.60;69.20;;;;;;5034486;28;20464;-43
2021/05/19 09:27:50;;;;;;;2.03;1.73;;;17.10;64.40;;;;;;5065784;28;20444;-44
2021/05/19 09:30:20;;;;;;;2.30;1.30;;;16.10;66.50;;;;;;5033192;28;20436;-44
2021/05/19 09:32:45;;;;;;;2.00;1.50;;;16.90;69.50;;;;;;5033870;28;20409;-45
2021/05/19 09:35:12;;;;;;;2.10;1.40;;;18.70;67.00;;;;;;5068965;28;20421;-44
2021/05/19 09:37:38;;;;;;;2.10;1.43;;;18.50;63.50;;;;;;5067146;28;20516;-44
2021/05/19 09:40:07;;;;;;;1.90;1.40;;;20.20;63.00;;;;;;5035477;28;20495;-44
2021/05/19 09:42:46;;;;;;;1.47;1.30;;;20.20;56.60;;;;;;5033876;28;20815;-44
2021/05/19 09:45:23;;;;;;;2.13;1.30;;;20.60;56.60;;;;;;5035489;28;21012;-44
2021/05/19 09:47:49;;;;;;;3.70;1.40;;;20.20;56.40;;;;;;5033272;28;20913;-46
2021/05/19 09:50:18;;;;;;;4.03;2.70;;;20.10;58.30;;;;;;5034020;28;20570;-44
2021/05/19 09:53:15;;;;;;;2.10;1.50;;;20.10;57.00;;;;;;5065201;28;20512;-45
2021/05/19 09:55:43;;;;;;;4.27;1.90;;;19.60;55.80;;;;;;5033494;28;20421;-44
2021/05/19 09:58:09;;;;;;;1.43;1.10;;;19.80;54.30;;;;;;5064793;28;20437;-44
2021/05/19 10:00:35;;;;;;;1.23;0.90;;;19.30;51.70;;;;;;5033868;28;20443;-44
2021/05/19 10:03:01;;;;;;;3.13;0.80;;;21.30;50.20;;;;;;5033127;28;20422;-44
2021/05/19 10:05:44;;;;;;;2.00;0.70;;;22.60;49.00;;;;;;5032086;28;20532;-44
2021/05/19 10:08:13;;;;;;;3.80;1.10;;;23.70;45.70;;;;;;5032317;28;20842;-44
2021/05/19 10:10:39;;;;;;;1.30;0.70;;;23.30;43.70;;;;;;5032623;28;20432;-44
2021/05/19 10:13:07;;;;;;;0.90;0.57;;;23.30;40.60;;;;;;5031209;28;20469;-44
2021/05/19 10:15:33;;;;;;;1.40;0.97;;;23.70;38.90;;;;;;5031093;28;20191;-44
2021/05/19 10:18:05;;;;;;;3.10;1.10;;;23.60;37.00;;;;;;5031653;28;20457;-44
2021/05/19 10:20:35;;;;;;;1.10;0.70;;;23.90;37.00;;;;;;5065113;28;20426;-44
2021/05/19 10:23:03;;;;;;;2.30;1.00;;;23.00;37.30;;;;;;5033916;28;20491;-44
2021/05/19 10:25:42;;;;;;;1.30;0.70;;;23.30;38.10;;;;;;5034196;28;20422;-44
2021/05/19 10:28:16;;;;;;;1.10;0.80;;;24.30;38.20;;;;;;5033210;28;20508;-44
2021/05/19 10:30:47;;;;;;;2.20;1.13;;;25.20;38.00;;;;;;5066185;28;20713;-44
2021/05/19 10:33:34;;;;;;;1.50;0.90;;;25.40;37.00;;;;;;5034102;28;20751;-44
2021/05/19 10:36:01;;;;;;;1.93;0.97;;;26.10;36.30;;;;;;5033401;28;20825;-43
2021/05/19 10:38:35;;;;;;;3.10;0.90;;;26.50;34.20;;;;;;5065265;28;20437;-44
2021/05/19 10:41:05;;;;;;;3.13;1.43;;;26.60;34.80;;;;;;5032736;28;20423;-44
2021/05/19 10:43:56;;;;;;;2.13;1.00;;;27.20;34.40;;;;;;5033582;28;20449;-44
2021/05/19 10:47:02;;;;;;;1.70;1.10;;;27.60;33.30;;;;;;5032919;28;20465;-44
2021/05/19 10:49:42;;;;;;;2.30;0.97;;;27.60;34.10;;;;;;5032993;28;20716;-44
2021/05/19 10:52:21;;;;;;;1.87;1.00;;;27.70;33.50;;;;;;5032705;28;20432;-44
2021/05/19 10:57:50;;;;;;;3.70;1.27;;;28.30;31.00;;;;;;5032042;28;20670;-45
2021/05/19 11:00:24;;;;;;;1.73;1.17;;;28.30;31.40;;;;;;5034641;28;20422;-45
2021/05/19 11:02:57;;;;;;;2.33;1.20;;;27.90;32.30;;;;;;5035965;28;20425;-44
2021/05/19 11:05:33;;;;;;;1.63;1.20;;;28.30;32.00;;;;;;5030972;28;20421;-45
2021/05/19 11:08:08;;;;;;;1.10;0.90;;;28.70;32.10;;;;;;5031725;28;20581;-44
2021/05/19 11:10:35;;;;;;;2.60;1.33;;;28.60;31.00;;;;;;5031558;28;20815;-43
2021/05/19 11:13:01;;;;;;;1.60;1.13;;;28.00;31.70;;;;;;5063020;28;20740;-43
2021/05/19 11:15:59;;;;;;;1.63;1.10;;;28.20;31.70;;;;;;5031304;28;20481;-46
2021/05/19 11:18:58;;;;;;;2.17;1.07;;;28.50;32.00;;;;;;5031214;28;20191;-46
2021/05/19 11:21:22;;;;;;;3.77;1.20;;;28.70;30.80;;;;;;5032557;28;20421;-43
2021/05/19 11:24:08;;;;;;;1.50;1.00;;;28.20;30.50;;;;;;5037373;28;20696;-45
2021/05/19 11:26:41;;;;;;;2.50;1.10;;;25.80;30.70;;;;;;5052441;28;20771;-45
2021/05/19 11:29:10;;;;;;;2.10;1.30;;;24.80;31.20;;;;;;5053924;28;20822;-45
2021/05/19 11:31:44;;;;;;;3.43;1.33;;;25.20;30.20;;;;;;5057740;28;20416;-45
2021/05/19 11:34:12;;;;;;;3.03;1.10;;;26.90;31.40;;;;;;5058453;28;20480;-45
2021/05/19 11:36:41;;;;;;;2.13;1.23;;;28.20;32.20;;;;;;5059183;28;20386;-45
2021/05/19 11:39:34;;;;;;;1.77;1.00;;;28.20;31.50;;;;;;5057980;28;20431;-45
2021/05/19 11:42:18;;;;;;;2.10;1.10;;;27.50;30.90;;;;;;5059659;28;20423;-45
2021/05/19 11:44:54;;;;;;;1.80;1.10;;;27.70;32.10;;;;;;5056491;28;20518;-45
2021/05/19 11:47:43;;;;;;;1.53;1.10;;;28.30;31.60;;;;;;5057671;28;20408;-45
2021/05/19 11:50:09;;;;;;;3.93;1.30;;;28.90;30.70;;;;;;5058435;28;20461;-45
2021/05/19 11:53:05;;;;;;;1.87;1.20;;;28.50;30.00;;;;;;5057529;28;20420;-45
2021/05/19 11:55:45;;;;;;;2.17;1.27;;;29.80;29.10;;;;;;5057660;28;20189;-45
2021/05/19 11:58:10;;;;;;;1.80;0.90;;;30.40;29.00;;;;;;5057080;28;20834;-45
2021/05/19 12:00:42;;;;;;;2.07;1.40;;;30.90;28.90;;;;;;5057266;28;20519;-45
2021/05/19 12:03:08;;;;;;;2.13;1.30;;;31.10;27.90;;;;;;5056572;28;20186;-45
2021/05/19 12:05:44;;;;;;;3.93;1.00;;;31.30;28.20;;;;;;5058290;28;20804;-45
2021/05/19 12:08:10;;;;;;;1.93;1.17;;;31.70;28.10;;;;;;5058037;28;20431;-45
2021/05/19 12:10:36;;;;;;;3.60;1.33;;;29.60;28.40;;;;;;5057567;28;20432;-46
2021/05/19 12:13:03;;;;;;;3.03;1.20;;;28.50;28.30;;;;;;5055501;28;20905;-46
2021/05/19 12:15:34;;;;;;;1.77;1.17;;;27.40;29.00;;;;;;5056253;28;20438;-46
2021/05/19 12:18:00;;;;;;;2.30;1.10;;;28.80;29.20;;;;;;5056309;28;20821;-46
2021/05/19 12:20:28;;;;;;;2.90;1.30;;;29.00;28.80;;;;;;5057925;28;20514;-46
2021/05/19 12:23:01;;;;;;;2.00;1.10;;;28.60;29.50;;;;;;5057345;28;20537;-46
2021/05/19 12:25:27;;;;;;;2.27;1.10;;;27.90;29.60;;;;;;5056616;28;20412;-46
2021/05/19 12:27:58;;;;;;;1.47;1.00;;;27.70;30.20;;;;;;5054289;28;20663;-46
2021/05/19 12:30:23;;;;;;;1.43;1.00;;;28.50;29.70;;;;;;5055878;28;20184;-46
2021/05/19 12:33:01;;;;;;;2.00;1.10;;;27.50;28.60;;;;;;5056517;28;20427;-46
2021/05/19 12:35:28;;;;;;;2.10;1.00;;;27.70;28.10;;;;;;5056674;28;20192;-46
2021/05/19 12:38:02;;;;;;;1.50;0.80;;;27.30;28.90;;;;;;5056933;28;20399;-46
2021/05/19 12:40:32;;;;;;;1.80;1.00;;;26.50;28.90;;;;;;5056052;28;20419;-45
2021/05/19 12:43:00;;;;;;;2.20;1.03;;;25.80;28.80;;;;;;5055032;28;20514;-46
2021/05/19 12:45:29;;;;;;;2.50;0.90;;;26.80;29.20;;;;;;5056170;28;20743;-45
2021/05/19 12:48:06;;;;;;;1.73;1.10;;;26.80;28.70;;;;;;5056156;28;20402;-46
2021/05/19 12:50:58;;;;;;;2.23;1.20;;;26.60;28.70;;;;;;5057785;28;20393;-45
2021/05/19 12:53:31;;;;;;;2.17;1.07;;;26.30;30.10;;;;;;5049400;28;20466;-46
2021/05/19 12:56:06;;;;;;;2.80;1.37;;;26.10;30.60;;;;;;5055941;28;20455;-44
2021/05/19 12:58:56;;;;;;;1.57;1.10;;;25.80;30.90;;;;;;5057278;28;20432;-44
2021/05/19 13:01:23;;;;;;;1.80;1.20;;;25.30;31.00;;;;;;5057051;28;20486;-44
2021/05/19 13:03:49;;;;;;;1.73;1.10;;;25.10;32.30;;;;;;5054478;28;20523;-44